createdAt,value
2018-05-10T00:00:15.381Z,54.7
2018-05-10T00:01:06.296Z,54.7
2018-05-10T00:01:56.349Z,54.7
2018-05-10T00:02:45.858Z,54.7
2018-05-10T00:03:36.465Z,54.7
2018-05-10T00:04:26.368Z,54.7
2018-05-10T00:05:16.605Z,54.6
2018-05-10T00:06:06.386Z,54.6
2018-05-10T00:06:56.749Z,54.6
2018-05-10T00:07:46.953Z,54.6
2018-05-10T00:08:36.292Z,54.6
2018-05-10T00:09:41.558Z,54.6
2018-05-10T00:10:17.117Z,54.6
2018-05-10T00:11:06.773Z,54.6
2018-05-10T00:11:56.834Z,54.6
2018-05-10T00:12:46.639Z,54.6
2018-05-10T00:13:36.690Z,54.6
2018-05-10T00:14:26.489Z,54.6
2018-05-10T00:15:17.396Z,54.6
2018-05-10T00:16:06.614Z,54.6
2018-05-10T00:16:57.514Z,54.6
2018-05-10T00:17:47.289Z,54.5
2018-05-10T00:18:37.371Z,54.5
2018-05-10T00:19:27.157Z,54.5
2018-05-10T00:20:17.494Z,54.5
2018-05-10T00:21:07.542Z,54.5
2018-05-10T00:21:57.901Z,54.5
2018-05-10T00:22:47.683Z,54.4
2018-05-10T00:23:38.006Z,54.4
2018-05-10T00:24:28.562Z,54.4
2018-05-10T00:25:18.146Z,54.4
2018-05-10T00:26:07.956Z,54.4
2018-05-10T00:26:57.987Z,54.4
2018-05-10T00:27:48.064Z,54.4
2018-05-10T00:28:38.113Z,54.4
2018-05-10T00:29:28.214Z,54.4
2018-05-10T00:30:18.157Z,54.4
2018-05-10T00:31:08.502Z,54.4
2018-05-10T00:31:58.644Z,54.4
2018-05-10T00:32:48.442Z,54.4
2018-05-10T00:33:38.194Z,54.4
2018-05-10T00:34:28.826Z,54.4
2018-05-10T00:35:18.644Z,54.4
2018-05-10T00:36:09.383Z,54.4
2018-05-10T00:36:58.487Z,54.4
2018-05-10T00:37:48.820Z,54.3
2018-05-10T00:38:38.928Z,54.3
2018-05-10T00:39:28.994Z,54.3
2018-05-10T00:40:19.265Z,54.3
2018-05-10T00:41:09.110Z,54.3
2018-05-10T00:41:59.167Z,54.3
2018-05-10T00:43:52.954Z,54.3
2018-05-10T00:44:02.695Z,54.3
2018-05-10T00:44:53.835Z,54.3
2018-05-10T00:45:43.669Z,54.3
2018-05-10T00:46:34.153Z,54.3
2018-05-10T00:47:23.525Z,54.3
2018-05-10T00:48:14.171Z,54.3
2018-05-10T00:49:04.226Z,54.3
2018-05-10T00:49:53.706Z,54.3
2018-05-10T00:50:44.051Z,54.3
2018-05-10T00:51:33.837Z,54.2
2018-05-10T00:52:39.098Z,54.2
2018-05-10T00:53:14.173Z,54.2
2018-05-10T00:54:04.329Z,54.2
2018-05-10T00:54:54.370Z,54.2
2018-05-10T00:55:44.451Z,54.2
2018-05-10T00:56:34.798Z,54.2
2018-05-10T00:57:23.998Z,54.1
2018-05-10T00:58:14.643Z,54.1
2018-05-10T00:59:05.058Z,54.1
2018-05-10T00:59:54.513Z,54.1
2018-05-10T01:00:44.569Z,54.1
2018-05-10T01:01:35.426Z,54.1
2018-05-10T01:02:24.684Z,54.1
2018-05-10T01:03:14.567Z,54.1
2018-05-10T01:04:05.004Z,54.1
2018-05-10T01:04:55.087Z,54.1
2018-05-10T01:05:44.389Z,54.1
2018-05-10T01:06:34.734Z,54.1
2018-05-10T01:07:24.804Z,54.1
2018-05-10T01:08:15.411Z,54.1
2018-05-10T01:09:05.173Z,54.1
2018-05-10T01:09:55.824Z,54.1
2018-05-10T01:10:45.035Z,54.1
2018-05-10T01:11:34.682Z,54
2018-05-10T01:12:24.919Z,54.1
2018-05-10T01:13:15.909Z,54
2018-05-10T01:14:05.306Z,54
2018-05-10T01:14:55.990Z,54
2018-05-10T01:15:45.119Z,54
2018-05-10T01:16:35.826Z,54
2018-05-10T01:17:25.849Z,54
2018-05-10T01:18:15.618Z,54
2018-05-10T01:19:05.943Z,54
2018-05-10T01:19:55.906Z,53.9
2018-05-10T01:20:46.347Z,53.9
2018-05-10T01:21:36.505Z,53.9
2018-05-10T01:22:26.490Z,53.9
2018-05-10T01:23:15.724Z,53.9
2018-05-10T01:24:06.033Z,53.9
2018-05-10T01:24:56.707Z,53.9
2018-05-10T01:25:47.010Z,53.9
2018-05-10T01:26:36.547Z,53.9
2018-05-10T01:27:26.903Z,53.9
2018-05-10T01:28:16.635Z,53.9
2018-05-10T01:29:07.275Z,53.9
2018-05-10T01:29:56.763Z,53.9
2018-05-10T01:30:47.145Z,53.9
2018-05-10T01:31:37.171Z,53.9
2018-05-10T01:32:41.936Z,53.9
2018-05-10T20:10:30.789Z,41.5
2018-05-10T20:11:21.996Z,41.6
2018-05-10T20:12:12.061Z,41.6
2018-05-10T20:13:01.834Z,41.5
2018-05-10T20:13:53.263Z,41.6
2018-05-10T20:14:41.967Z,41.6
2018-05-10T20:15:32.307Z,41.5
2018-05-10T20:16:22.353Z,41.5
2018-05-10T20:17:12.163Z,41.6
2018-05-10T20:18:02.519Z,41.5
2018-05-10T20:18:51.426Z,41.5
2018-05-10T20:19:41.486Z,41.5
2018-05-10T20:20:31.346Z,41.5
2018-05-10T20:21:22.779Z,41.5
2018-05-10T20:22:12.518Z,41.5
2018-05-10T20:23:02.347Z,41.5
2018-05-10T20:23:52.985Z,41.5
2018-05-10T20:24:42.024Z,41.5
2018-05-10T20:25:32.524Z,41.5
2018-05-10T20:26:22.283Z,41.5
2018-05-10T20:27:11.856Z,41.5
2018-05-10T20:28:02.501Z,41.4
2018-05-10T20:28:52.209Z,41.5
2018-05-10T20:29:42.676Z,41.5
2018-05-10T20:30:32.403Z,41.5
2018-05-10T20:31:22.362Z,41.4
2018-05-10T20:32:13.765Z,41.5
2018-05-10T20:33:03.066Z,41.5
2018-05-10T20:33:53.188Z,41.4
2018-05-10T20:34:42.723Z,41.4
2018-05-10T20:35:33.245Z,41.4
2018-05-10T20:36:23.890Z,41.4
2018-05-10T20:37:13.754Z,41.4
2018-05-10T20:38:02.595Z,41.4
2018-05-10T20:38:53.533Z,41.4
2018-05-10T20:39:43.912Z,41.4
2018-05-10T20:40:33.094Z,41.4
2018-05-10T20:41:23.448Z,41.4
2018-05-10T20:42:13.677Z,41.4
2018-05-10T20:43:04.258Z,41.4
2018-05-10T20:43:53.922Z,41.4
2018-05-10T20:44:44.159Z,41.4
2018-05-10T20:45:34.309Z,41.4
2018-05-10T20:46:23.777Z,41.4
2018-05-10T20:47:14.148Z,41.4
2018-05-10T20:48:04.507Z,41.4
2018-05-10T20:48:54.869Z,41.4
2018-05-10T20:49:44.154Z,41.4
2018-05-10T20:50:34.801Z,41.4
2018-05-10T20:51:23.897Z,41.4
2018-05-10T20:52:14.808Z,41.4
2018-05-10T20:53:04.856Z,41.4
2018-05-10T20:53:54.518Z,41.4
2018-05-10T20:54:45.013Z,41.4
2018-05-10T20:55:34.908Z,41.4
2018-05-10T20:56:25.112Z,41.4
2018-05-10T20:57:14.640Z,41.4
2018-05-10T20:58:04.949Z,41.3
2018-05-10T20:58:54.912Z,41.3
2018-05-10T20:59:45.134Z,41.3
2018-05-10T21:00:34.938Z,41.3
2018-05-10T21:01:25.237Z,41.3
2018-05-10T21:02:14.780Z,41.3
2018-05-10T21:03:05.627Z,41.4
2018-05-10T21:03:54.809Z,41.3
2018-05-10T21:04:45.275Z,41.3
2018-05-10T21:05:35.908Z,41.3
2018-05-10T21:06:25.618Z,41.3
2018-05-10T21:07:15.270Z,41.3
2018-05-10T21:08:05.753Z,41.3
2018-05-10T21:08:56.073Z,41.3
2018-05-10T21:09:46.105Z,41.3
2018-05-10T21:10:36.239Z,41.3
2018-05-10T21:11:25.417Z,41.3
2018-05-10T21:12:16.045Z,41.3
2018-05-10T21:13:06.120Z,41.3
2018-05-10T21:13:56.452Z,41.3
2018-05-10T21:14:46.330Z,41.3
2018-05-10T21:15:36.312Z,41.3
2018-05-10T21:16:27.191Z,41.3
2018-05-10T21:17:16.997Z,41.3
2018-05-10T21:18:06.782Z,41.3
2018-05-10T21:18:57.141Z,41.3
2018-05-10T21:19:46.886Z,41.3
2018-05-10T21:20:36.962Z,41.3
2018-05-10T21:21:27.148Z,41.3
2018-05-10T21:22:17.069Z,41.3
2018-05-10T21:23:07.924Z,41.3
2018-05-10T21:23:56.936Z,41.3
2018-05-10T21:24:47.546Z,41.2
2018-05-10T21:25:36.781Z,41.3
2018-05-10T21:26:27.403Z,41.3
2018-05-10T21:27:17.473Z,41.3
2018-05-10T21:28:07.211Z,41.3
2018-05-10T21:28:57.571Z,41.3
2018-05-10T21:29:47.961Z,41.2
2018-05-10T21:30:37.424Z,41.3
2018-05-10T21:31:27.501Z,41.2
2018-05-10T21:32:18.103Z,41.3
2018-05-10T21:33:08.184Z,41.2
2018-05-10T21:33:58.726Z,41.2
2018-05-10T21:34:48.308Z,41.2
2018-05-10T21:35:38.072Z,41.2
2018-05-10T21:36:28.524Z,41.2
2018-05-10T21:37:18.502Z,41.2
2018-05-10T21:38:08.546Z,41.2
2018-05-10T21:38:58.643Z,41.2
2018-05-10T21:39:48.392Z,41.2
2018-05-10T21:40:38.192Z,41.2
2018-05-10T21:41:28.314Z,41.2
2018-05-10T21:42:18.886Z,41.2
2018-05-10T21:43:08.693Z,41.2
2018-05-10T21:43:58.696Z,41.1
2018-05-10T21:44:49.676Z,41.2
2018-05-10T21:45:39.118Z,41.1
2018-05-10T21:46:28.913Z,41.1
2018-05-10T21:47:19.268Z,41.1
2018-05-10T21:48:09.033Z,41.1
2018-05-10T21:48:58.813Z,41.1
2018-05-10T21:49:49.200Z,41.1
2018-05-10T21:50:38.653Z,41.1
2018-05-10T21:51:29.297Z,41.1
2018-05-10T21:52:19.640Z,41.1
2018-05-10T21:53:09.744Z,41.1
2018-05-10T21:53:58.659Z,41.1
2018-05-10T21:54:49.943Z,41.1
2018-05-10T21:55:39.595Z,41.1
2018-05-10T21:56:29.958Z,41.1
2018-05-10T21:57:19.478Z,41.1
2018-05-10T21:58:09.798Z,41.1
2018-05-10T21:58:59.894Z,41.1
2018-05-10T21:59:50.218Z,41.1
2018-05-10T22:00:40.281Z,41.1
2018-05-10T22:01:30.423Z,41.1
2018-05-10T22:02:20.362Z,41.1
2018-05-10T22:03:10.437Z,41.1
2018-05-10T22:04:00.543Z,41.1
2018-05-10T22:04:50.032Z,41.1
2018-05-10T22:05:40.387Z,41.1
2018-05-10T22:06:30.405Z,41.1
2018-05-10T22:07:20.523Z,41.1
2018-05-10T22:08:10.526Z,41.1
2018-05-10T22:09:00.992Z,41.1
2018-05-10T22:09:51.027Z,41.1
2018-05-10T22:10:40.737Z,41.1
2018-05-10T22:11:30.516Z,41.1
2018-05-10T22:12:20.681Z,41.1
2018-05-10T22:13:11.230Z,41.1
2018-05-10T22:14:00.718Z,41
2018-05-10T22:14:51.169Z,41
2018-05-10T22:15:41.172Z,41
2018-05-10T22:16:31.231Z,41
2018-05-10T22:17:21.576Z,41
2018-05-10T22:18:11.337Z,41
2018-05-10T22:19:01.759Z,41
2018-05-10T22:19:50.884Z,41
2018-05-10T22:20:41.617Z,41
2018-05-10T22:21:31.844Z,41
2018-05-10T22:22:21.916Z,41
2018-05-10T22:23:11.718Z,41
2018-05-10T22:24:02.036Z,41
2018-05-10T22:24:52.090Z,41
2018-05-10T22:25:41.873Z,41
2018-05-10T22:26:32.229Z,40.9
2018-05-10T22:27:21.723Z,41
2018-05-10T22:28:12.044Z,41
2018-05-10T22:29:01.861Z,40.9
2018-05-10T22:29:52.476Z,40.9
2018-05-10T22:30:42.542Z,40.9
2018-05-10T22:31:32.628Z,40.9
2018-05-10T22:32:22.688Z,40.9
2018-05-10T22:33:12.472Z,40.9
2018-05-10T22:34:02.245Z,40.9
2018-05-10T22:34:52.590Z,40.9
2018-05-10T22:35:42.935Z,40.9
2018-05-10T22:36:32.404Z,40.9
2018-05-10T22:37:22.783Z,40.9
2018-05-10T22:38:13.129Z,40.9
2018-05-10T22:39:02.902Z,40.9
2018-05-10T22:39:53.285Z,40.9
2018-05-10T22:40:42.754Z,40.9
2018-05-10T22:41:33.366Z,40.9
2018-05-10T22:42:23.153Z,40.9
2018-05-10T22:43:12.957Z,40.9
2018-05-10T22:44:03.285Z,40.9
2018-05-10T22:44:53.624Z,40.9
2018-05-10T22:45:43.692Z,40.9
2018-05-10T22:46:33.750Z,40.9
2018-05-10T22:47:22.684Z,40.9
2018-05-10T22:48:13.889Z,40.9
2018-05-10T22:49:03.985Z,40.9
2018-05-10T22:49:54.001Z,40.9
2018-05-10T22:50:44.101Z,40.9
2018-05-10T22:51:34.119Z,40.9
2018-05-10T22:52:23.937Z,40.9
2018-05-10T22:53:14.266Z,40.9
2018-05-10T22:54:04.039Z,40.9
2018-05-10T22:54:54.371Z,40.9
2018-05-10T22:55:44.499Z,40.8
2018-05-10T22:56:34.232Z,40.8
2018-05-10T22:57:24.588Z,40.9
2018-05-10T22:58:14.657Z,40.8
2018-05-10T22:59:04.428Z,40.9
2018-05-10T22:59:55.347Z,40.8
2018-05-10T23:00:44.549Z,40.8
2018-05-10T23:01:34.459Z,40.8
2018-05-10T23:02:24.961Z,40.8
2018-05-10T23:03:14.447Z,40.8
2018-05-10T23:04:05.109Z,40.8
2018-05-10T23:04:55.173Z,40.8
2018-05-10T23:05:45.200Z,40.8
2018-05-10T23:06:35.274Z,40.8
2018-05-10T23:07:25.051Z,40.8
2018-05-10T23:08:15.406Z,40.8
2018-05-10T23:09:04.886Z,40.8
2018-05-10T23:09:55.251Z,40.8
2018-05-10T23:10:45.024Z,40.8
2018-05-10T23:11:35.378Z,40.8
2018-05-10T23:12:25.422Z,40.8
2018-05-10T23:13:15.518Z,40.8
2018-05-10T23:14:05.842Z,40.8
2018-05-10T23:14:55.342Z,40.8
2018-05-10T23:15:45.690Z,40.8
2018-05-10T23:16:36.009Z,40.8
2018-05-10T23:17:25.813Z,40.8
2018-05-10T23:18:16.140Z,40.8
2018-05-10T23:19:05.975Z,40.8
2018-05-10T23:19:56.270Z,40.8
2018-05-10T23:20:46.060Z,40.8
2018-05-10T23:21:36.122Z,40.8
2018-05-10T23:22:26.191Z,40.8
2018-05-10T23:23:16.242Z,40.8
2018-05-10T23:24:06.343Z,40.8
2018-05-10T23:24:55.823Z,40.7
2018-05-10T23:25:46.828Z,40.7
2018-05-10T23:26:36.791Z,40.7
2018-05-10T23:27:26.840Z,40.7
2018-05-10T23:28:16.950Z,40.7
2018-05-10T23:29:06.428Z,40.7
2018-05-10T23:29:56.472Z,40.7
2018-05-10T23:30:46.813Z,40.7
2018-05-10T23:31:36.934Z,40.7
2018-05-10T23:32:26.935Z,40.7
2018-05-10T23:33:17.297Z,40.7
2018-05-10T23:34:07.338Z,40.7
2018-05-10T23:34:56.835Z,40.7
2018-05-10T23:35:47.214Z,40.7
2018-05-10T23:36:37.256Z,40.6
2018-05-10T23:37:27.066Z,40.7
2018-05-10T23:38:17.104Z,40.7
2018-05-10T23:39:07.737Z,40.7
2018-05-10T23:39:57.796Z,40.7
2018-05-10T23:40:47.840Z,40.7
2018-05-10T23:41:37.969Z,40.6
2018-05-10T23:42:28.005Z,40.6
2018-05-10T23:43:17.513Z,40.6
2018-05-10T23:44:08.138Z,40.6
2018-05-10T23:44:58.168Z,40.6
2018-05-10T23:45:48.239Z,40.6
2018-05-10T23:46:38.025Z,40.6
2018-05-10T23:47:27.808Z,40.6
2018-05-10T23:48:18.455Z,40.6
2018-05-10T23:49:08.245Z,40.6
2018-05-10T23:49:58.544Z,40.6
2018-05-10T23:50:48.347Z,40.6
2018-05-10T23:51:38.673Z,40.6
2018-05-10T23:52:27.892Z,40.6
2018-05-10T23:53:18.790Z,40.6
2018-05-10T23:54:08.619Z,40.6
2018-05-10T23:54:58.968Z,40.6
2018-05-10T23:55:49.005Z,40.6
2018-05-10T23:56:39.055Z,40.6
2018-05-10T23:57:29.113Z,40.6
2018-05-10T23:58:18.639Z,40.6
2018-05-10T23:59:08.958Z,40.6
2018-05-10T23:59:59.015Z,40.6
